メインページ
METAR-TAF:

METAR-TAF

空港 :

コルドバ, アルゼンチン

緯度: 31-19S, 経度: 064-13W, 海抜: 484m

現時点の気象観測

当レポートは26分前の17:00(UTC)に作成
の風 16kt
気温 18°C
湿度 26%
気圧 1012 hPa
視程10km以上
1,500メートル以下は雲なし、積乱雲なし

METAR: SACO 231700Z 18016KT CAVOK 18/M02 Q1012

時間: 14:26 (17:26 UTC)

予報

当レポートは6時間26分前の11:00(UTC)に作成
予報は23日の 12時(UTC)から 24日の 12時(UTC)まで有効
南/南西の風 15kt
高度2500ftの千切れ雲あり
23日の 18時(UTC)から 23日の 21時(UTC)まで徐々に
の風 15kt
視程10km以上
1,500メートル以下は雲なし、積乱雲なし
24日の 00時(UTC)から 24日の 03時(UTC)まで徐々に
西の風 5kt

TAF: SACO 231100Z 2312/2412 20015KT BKN025 TX21/2318Z TN08/2410Z BECMG 2318/2321 18015KT CAVOK BECMG 2400/2403 27005KT

4,000以上の空港の気象観測と天気予報(METAR報とTAF報)

利用可能な観測所は地図上に黄色い丸と赤い丸で示す。

丸の上にカーソルを重ねると観測所名を参照できる。

次にクリックすると気象観測と天気予報を参照できる。

マップの切り替え:黒色「×」印の緑ボタンをクリックして拡大、「-」印の緑ボタンをクリックして縮小、緑色の三角印をクリックして隣りの地図に切り替え


METAR-TAF: